FNBG/BUG METAR and TAF weather

Enter ICAO airport designator
Station Type Date Time Source
FNBG METAR 2018/06/24 17:00 UTC NOAA

FNBG 241700Z 29006KT 9999 BKN015 23/19 Q1013


Station Type Date Time Source
FNBG Decoded METAR 2018/06/24 17:00 UTC NOAA

Monbaca Benguela , Angola (FNBG) 12-35S 013-25E 4M
Jun 24, 2018 - 01:00 PM EDT / 2018.06.24 1700 UTC
Wind: from the WNW (290 degrees) at 7 MPH (6 KT):0
Visibility: greater than 7 mile(s):0
Sky conditions: mostly cloudy
Temperature: 73 F (23 C)
Dew Point: 66 F (19 C)
Relative Humidity: 78%
Pressure (altimeter): 29.91 in. Hg (1013 hPa)
ob: FNBG 241700Z 29006KT 9999 BKN015 23/19 Q1013
cycle: 17

Station Type Date Time Source
FNBG TAF 2018/06/24 12:50 UTC NOAA

TAF FNBG 241050Z 2412/2424 32008KT 9999 FEW015 BKN050 PROB30
TEMPO 2413/2417 26010KT CAVOK
BECMG 2419/2421 20006KT


Example: see airport list